Avioradar koristi kolačiće da bi Vam omogućio jednostavnije i ugodnije korištenje stranice. 

AVIORADAR - Hrvatski zrakoplovni portal

METAR & TAF

[Source: ADDS]
METAR
LDZA 070000Z 22003KT CAVOK 18/17 Q1018 NOSIG =
LDZA 062325Z 0700/0800 02007KT CAVOK TX28/0712Z TN16/0704Z PROB30 TEMPO 0702/0706 VRB02KT 1500 BCFG BKN005 LDSP 070000Z AUTO 06006KT 350V130 CAVOK 26/13 Q1014 =
LDSP 062325Z 0700/0800 05010KT 9999 SCT050 TX32/0712Z TN24/0703Z PROB30 TEMPO 0700/0706 05015G25KT BECMG 0710/0712 23010KT BECMG 0715/0717 05010KT LDDU 070000Z 03011KT 330V080 CAVOK 24/12 Q1013 =
LDDU 062325Z 0700/0800 02010KT 9999 FEW045 TX27/0713Z TN21/0703Z PROB30 TEMPO 0700/0702 03018G28KT BECMG 0707/0709 22008KT BECMG 0710/0712 29010KT BECMG 0718/0720 02008KT LDPL 070000Z 05013KT CAVOK 23/15 Q1017 =
LDPL 062325Z 0700/0800 06012KT CAVOK TX31/0713Z TN10/0703Z LDZD 070000Z 08003KT 020V150 CAVOK 24/15 Q1015 =
LDZD 062325Z 0700/0800 06014KT 9999 FEW050 TX32/0712Z TN20/0704Z TEMPO 0700/0706 06008KT PROB30 TEMPO 0718/0800 06015G25KT LDRI 070000Z 02010G20KT 330V070 CAVOK 24/16 Q1017 =
LDRI 062325Z 0700/0800 06010KT CAVOK TX31/0713Z TN21/0700Z PROB30 TEMPO 0700/0706 VRB10KT PROB30 TEMPO 0706/0715 06015G25KT PROB30 TEMPO 0715/0800 VRB10KT LDOS 070000Z 28005KT CAVOK 18/18 Q1016 =
LDOS 062325Z 0700/0800 02008KT CAVOK TX29/0712Z TN17/0704Z
TAF
LDZA 062325Z 0700/0800 02007KT CAVOK TX28/0712Z TN16/0704Z PROB30 TEMPO 0702/0706 VRB02KT 1500 BCFG BKN005 =
LDSP 062325Z 0700/0800 05010KT 9999 SCT050 TX32/0712Z TN24/0703Z PROB30 TEMPO 0700/0706 05015G25KT BECMG 0710/0712 23010KT BECMG 0715/0717 05010KT =
LDDU 062325Z 0700/0800 02010KT 9999 FEW045 TX27/0713Z TN21/0703Z PROB30 TEMPO 0700/0702 03018G28KT BECMG 0707/0709 22008KT BECMG 0710/0712 29010KT BECMG 0718/0720 02008KT =
LDPL 062325Z 0700/0800 06012KT CAVOK TX31/0713Z TN10/0703Z =
LDZD 062325Z 0700/0800 06014KT 9999 FEW050 TX32/0712Z TN20/0704Z TEMPO 0700/0706 06008KT PROB30 TEMPO 0718/0800 06015G25KT =
LDRI 062325Z 0700/0800 06010KT CAVOK TX31/0713Z TN21/0700Z PROB30 TEMPO 0700/0706 VRB10KT PROB30 TEMPO 0706/0715 06015G25KT PROB30 TEMPO 0715/0800 VRB10KT =
LDOS 062325Z 0700/0800 02008KT CAVOK TX29/0712Z TN17/0704Z =
SR / SS: 03:47 / 18:15 UTC (Zagreb 2020-08-07)